Terminal Aerodrome Forecast
Issued by NWS

Home | Current Version | Previous Version | Text Only | Print | Product List | Glossary On
Versions: 1 2 3 4 5 6 7 8 9 10 11 12 13 14
000
FTUS46 KPDT 260534
TAFDLS
TAF
KDLS 260534Z 2606/2706 30010KT P6SM FEW060
     FM260800 30008KT P6SM BKN250
     FM261500 VRB06KT P6SM SCT150 BKN250
     FM262000 30007KT P6SM BKN100 BKN250=

USA.gov is the U.S. government's official web portal to all federal, state and local government web resources and services.